sensor_id;sensor_type;location;lat;lon;timestamp;P1;durP1;ratioP1;P2;durP2;ratioP2
17171;SDS011;8701;50.150;8.756;2024-01-30T00:03:04;7.27;;;6.00;;
17171;SDS011;8701;50.150;8.756;2024-01-30T00:07:06;9.83;;;6.77;;
17171;SDS011;8701;50.150;8.756;2024-01-30T00:11:09;9.20;;;5.97;;
17171;SDS011;8701;50.150;8.756;2024-01-30T00:15:11;7.20;;;5.90;;
17171;SDS011;8701;50.150;8.756;2024-01-30T00:19:15;10.30;;;5.90;;
17171;SDS011;8701;50.150;8.756;2024-01-30T00:23:17;12.50;;;6.20;;
17171;SDS011;8701;50.150;8.756;2024-01-30T00:27:20;10.70;;;5.90;;
17171;SDS011;8701;50.150;8.756;2024-01-30T00:31:22;9.50;;;6.13;;
17171;SDS011;8701;50.150;8.756;2024-01-30T00:35:26;12.87;;;6.10;;
17171;SDS011;8701;50.150;8.756;2024-01-30T00:39:30;9.67;;;6.80;;
17171;SDS011;8701;50.150;8.756;2024-01-30T00:43:32;9.37;;;5.93;;
17171;SDS011;8701;50.150;8.756;2024-01-30T00:47:34;7.37;;;6.43;;
17171;SDS011;8701;50.150;8.756;2024-01-30T00:51:38;8.57;;;5.70;;
17171;SDS011;8701;50.150;8.756;2024-01-30T00:55:40;8.00;;;5.90;;
17171;SDS011;8701;50.150;8.756;2024-01-30T00:59:43;14.30;;;6.60;;
17171;SDS011;8701;50.150;8.756;2024-01-30T01:03:45;6.70;;;5.73;;
17171;SDS011;8701;50.150;8.756;2024-01-30T01:07:50;8.93;;;6.90;;
17171;SDS011;8701;50.150;8.756;2024-01-30T01:11:52;10.10;;;6.07;;
17171;SDS011;8701;50.150;8.756;2024-01-30T01:15:54;11.70;;;6.27;;
17171;SDS011;8701;50.150;8.756;2024-01-30T01:19:57;9.97;;;6.10;;
17171;SDS011;8701;50.150;8.756;2024-01-30T01:24:00;8.17;;;5.87;;
17171;SDS011;8701;50.150;8.756;2024-01-30T01:28:03;7.53;;;5.50;;
17171;SDS011;8701;50.150;8.756;2024-01-30T01:32:05;9.33;;;5.90;;
17171;SDS011;8701;50.150;8.756;2024-01-30T01:36:10;9.47;;;5.80;;
17171;SDS011;8701;50.150;8.756;2024-01-30T01:40:14;9.23;;;5.87;;
17171;SDS011;8701;50.150;8.756;2024-01-30T01:44:17;9.80;;;5.83;;
17171;SDS011;8701;50.150;8.756;2024-01-30T01:48:19;10.30;;;5.33;;
17171;SDS011;8701;50.150;8.756;2024-01-30T01:52:22;8.50;;;5.50;;
17171;SDS011;8701;50.150;8.756;2024-01-30T01:56:26;9.40;;;5.50;;
17171;SDS011;8701;50.150;8.756;2024-01-30T02:00:29;7.73;;;5.50;;
17171;SDS011;8701;50.150;8.756;2024-01-30T02:04:32;8.53;;;5.53;;
17171;SDS011;8701;50.150;8.756;2024-01-30T02:08:36;8.97;;;5.83;;
17171;SDS011;8701;50.150;8.756;2024-01-30T02:12:40;8.40;;;6.07;;
17171;SDS011;8701;50.150;8.756;2024-01-30T02:16:43;9.37;;;5.77;;
17171;SDS011;8701;50.150;8.756;2024-01-30T02:20:45;7.23;;;5.50;;
17171;SDS011;8701;50.150;8.756;2024-01-30T02:24:49;6.60;;;5.40;;
17171;SDS011;8701;50.150;8.756;2024-01-30T02:28:51;9.13;;;5.37;;
17171;SDS011;8701;50.150;8.756;2024-01-30T02:32:54;7.93;;;5.67;;
17171;SDS011;8701;50.150;8.756;2024-01-30T02:36:56;8.67;;;5.53;;
17171;SDS011;8701;50.150;8.756;2024-01-30T02:41:00;9.43;;;5.57;;
17171;SDS011;8701;50.150;8.756;2024-01-30T02:45:02;11.63;;;5.23;;
17171;SDS011;8701;50.150;8.756;2024-01-30T02:49:05;11.30;;;5.43;;
17171;SDS011;8701;50.150;8.756;2024-01-30T02:53:07;8.03;;;5.30;;
17171;SDS011;8701;50.150;8.756;2024-01-30T02:57:10;10.27;;;5.47;;
17171;SDS011;8701;50.150;8.756;2024-01-30T03:01:13;8.30;;;5.63;;
17171;SDS011;8701;50.150;8.756;2024-01-30T03:05:15;6.47;;;5.27;;
17171;SDS011;8701;50.150;8.756;2024-01-30T03:09:17;8.00;;;6.20;;
17171;SDS011;8701;50.150;8.756;2024-01-30T03:13:21;6.93;;;5.30;;
17171;SDS011;8701;50.150;8.756;2024-01-30T03:17:25;7.50;;;5.07;;
17171;SDS011;8701;50.150;8.756;2024-01-30T03:21:28;8.50;;;6.03;;
17171;SDS011;8701;50.150;8.756;2024-01-30T03:25:30;8.07;;;6.03;;
17171;SDS011;8701;50.150;8.756;2024-01-30T03:29:34;8.90;;;5.77;;
17171;SDS011;8701;50.150;8.756;2024-01-30T03:33:36;10.07;;;6.57;;
17171;SDS011;8701;50.150;8.756;2024-01-30T03:37:39;10.07;;;6.80;;
17171;SDS011;8701;50.150;8.756;2024-01-30T03:41:41;10.67;;;7.27;;
17171;SDS011;8701;50.150;8.756;2024-01-30T03:45:46;11.27;;;7.13;;
17171;SDS011;8701;50.150;8.756;2024-01-30T03:49:48;10.40;;;7.37;;
17171;SDS011;8701;50.150;8.756;2024-01-30T03:53:51;10.90;;;6.77;;
17171;SDS011;8701;50.150;8.756;2024-01-30T03:57:53;10.63;;;7.30;;
17171;SDS011;8701;50.150;8.756;2024-01-30T04:01:57;9.87;;;6.30;;
17171;SDS011;8701;50.150;8.756;2024-01-30T04:05:59;10.47;;;6.93;;
17171;SDS011;8701;50.150;8.756;2024-01-30T04:10:02;10.00;;;6.53;;
17171;SDS011;8701;50.150;8.756;2024-01-30T04:14:06;9.27;;;6.80;;
17171;SDS011;8701;50.150;8.756;2024-01-30T04:18:09;9.80;;;5.90;;
17171;SDS011;8701;50.150;8.756;2024-01-30T04:22:12;9.37;;;6.40;;
17171;SDS011;8701;50.150;8.756;2024-01-30T04:26:14;10.30;;;5.47;;
17171;SDS011;8701;50.150;8.756;2024-01-30T04:30:16;9.50;;;6.43;;
17171;SDS011;8701;50.150;8.756;2024-01-30T04:34:20;10.80;;;6.43;;
17171;SDS011;8701;50.150;8.756;2024-01-30T04:38:22;10.60;;;6.53;;
17171;SDS011;8701;50.150;8.756;2024-01-30T04:42:25;8.60;;;6.07;;
17171;SDS011;8701;50.150;8.756;2024-01-30T04:46:28;12.73;;;7.43;;
17171;SDS011;8701;50.150;8.756;2024-01-30T04:50:31;10.03;;;7.27;;
17171;SDS011;8701;50.150;8.756;2024-01-30T04:54:33;9.97;;;6.37;;
17171;SDS011;8701;50.150;8.756;2024-01-30T04:58:36;12.70;;;6.90;;
17171;SDS011;8701;50.150;8.756;2024-01-30T05:02:38;16.50;;;7.07;;
17171;SDS011;8701;50.150;8.756;2024-01-30T05:06:42;11.30;;;6.40;;
17171;SDS011;8701;50.150;8.756;2024-01-30T05:10:44;12.13;;;7.37;;
17171;SDS011;8701;50.150;8.756;2024-01-30T05:14:46;10.50;;;6.63;;
17171;SDS011;8701;50.150;8.756;2024-01-30T05:18:49;11.10;;;6.40;;
17171;SDS011;8701;50.150;8.756;2024-01-30T05:22:52;12.40;;;6.67;;
17171;SDS011;8701;50.150;8.756;2024-01-30T05:26:54;9.50;;;5.93;;
17171;SDS011;8701;50.150;8.756;2024-01-30T05:30:57;12.33;;;6.63;;
17171;SDS011;8701;50.150;8.756;2024-01-30T05:34:59;11.10;;;6.00;;
17171;SDS011;8701;50.150;8.756;2024-01-30T05:39:02;11.40;;;6.77;;
17171;SDS011;8701;50.150;8.756;2024-01-30T05:43:05;14.27;;;6.67;;
17171;SDS011;8701;50.150;8.756;2024-01-30T05:47:08;13.40;;;6.60;;
17171;SDS011;8701;50.150;8.756;2024-01-30T05:51:10;14.30;;;8.23;;
17171;SDS011;8701;50.150;8.756;2024-01-30T05:55:14;10.63;;;7.13;;
17171;SDS011;8701;50.150;8.756;2024-01-30T05:59:16;11.17;;;6.87;;
17171;SDS011;8701;50.150;8.756;2024-01-30T06:03:19;9.63;;;6.80;;
17171;SDS011;8701;50.150;8.756;2024-01-30T06:07:21;12.40;;;6.57;;
17171;SDS011;8701;50.150;8.756;2024-01-30T06:11:25;9.10;;;6.27;;
17171;SDS011;8701;50.150;8.756;2024-01-30T06:15:27;8.63;;;6.13;;
17171;SDS011;8701;50.150;8.756;2024-01-30T06:19:30;8.13;;;5.77;;
17171;SDS011;8701;50.150;8.756;2024-01-30T06:23:32;7.60;;;5.50;;
17171;SDS011;8701;50.150;8.756;2024-01-30T06:27:36;9.67;;;6.47;;
17171;SDS011;8701;50.150;8.756;2024-01-30T06:31:41;11.20;;;7.00;;
17171;SDS011;8701;50.150;8.756;2024-01-30T06:35:43;10.90;;;6.67;;
17171;SDS011;8701;50.150;8.756;2024-01-30T06:39:46;8.37;;;6.20;;
17171;SDS011;8701;50.150;8.756;2024-01-30T06:43:50;16.53;;;6.53;;
17171;SDS011;8701;50.150;8.756;2024-01-30T06:47:52;9.07;;;6.23;;
17171;SDS011;8701;50.150;8.756;2024-01-30T06:51:55;8.70;;;6.47;;
17171;SDS011;8701;50.150;8.756;2024-01-30T06:55:57;10.50;;;6.83;;
17171;SDS011;8701;50.150;8.756;2024-01-30T07:00:01;10.70;;;6.80;;
17171;SDS011;8701;50.150;8.756;2024-01-30T07:04:04;10.83;;;6.90;;
17171;SDS011;8701;50.150;8.756;2024-01-30T07:08:06;11.40;;;6.90;;
17171;SDS011;8701;50.150;8.756;2024-01-30T07:12:08;9.83;;;6.30;;
17171;SDS011;8701;50.150;8.756;2024-01-30T07:16:12;11.70;;;6.63;;
17171;SDS011;8701;50.150;8.756;2024-01-30T07:20:14;9.00;;;6.40;;
17171;SDS011;8701;50.150;8.756;2024-01-30T07:24:17;8.97;;;6.83;;
17171;SDS011;8701;50.150;8.756;2024-01-30T07:28:19;8.40;;;6.33;;
17171;SDS011;8701;50.150;8.756;2024-01-30T07:32:23;7.23;;;5.87;;
17171;SDS011;8701;50.150;8.756;2024-01-30T07:36:25;10.00;;;6.90;;
17171;SDS011;8701;50.150;8.756;2024-01-30T07:40:27;10.23;;;6.17;;
17171;SDS011;8701;50.150;8.756;2024-01-30T07:44:30;10.53;;;6.53;;
17171;SDS011;8701;50.150;8.756;2024-01-30T07:48:34;11.63;;;6.43;;
17171;SDS011;8701;50.150;8.756;2024-01-30T07:52:36;12.67;;;7.30;;
17171;SDS011;8701;50.150;8.756;2024-01-30T07:56:40;7.77;;;6.87;;
17171;SDS011;8701;50.150;8.756;2024-01-30T08:00:42;11.90;;;7.50;;
17171;SDS011;8701;50.150;8.756;2024-01-30T08:04:46;14.33;;;7.47;;
17171;SDS011;8701;50.150;8.756;2024-01-30T08:08:50;9.97;;;7.10;;
17171;SDS011;8701;50.150;8.756;2024-01-30T08:12:53;12.00;;;7.83;;
17171;SDS011;8701;50.150;8.756;2024-01-30T08:16:56;9.60;;;7.40;;
17171;SDS011;8701;50.150;8.756;2024-01-30T08:20:59;15.43;;;8.77;;
17171;SDS011;8701;50.150;8.756;2024-01-30T08:25:02;13.83;;;7.60;;
17171;SDS011;8701;50.150;8.756;2024-01-30T08:29:05;17.30;;;8.30;;
17171;SDS011;8701;50.150;8.756;2024-01-30T08:33:07;12.67;;;8.57;;
17171;SDS011;8701;50.150;8.756;2024-01-30T08:37:11;10.53;;;7.40;;
17171;SDS011;8701;50.150;8.756;2024-01-30T08:41:16;12.63;;;7.70;;
17171;SDS011;8701;50.150;8.756;2024-01-30T08:45:19;20.83;;;9.20;;
17171;SDS011;8701;50.150;8.756;2024-01-30T08:49:21;12.10;;;9.10;;
17171;SDS011;8701;50.150;8.756;2024-01-30T08:53:25;17.67;;;8.70;;
17171;SDS011;8701;50.150;8.756;2024-01-30T08:57:27;12.90;;;8.07;;
17171;SDS011;8701;50.150;8.756;2024-01-30T09:01:31;13.90;;;8.27;;
17171;SDS011;8701;50.150;8.756;2024-01-30T09:05:33;17.80;;;10.03;;
17171;SDS011;8701;50.150;8.756;2024-01-30T09:09:37;15.73;;;8.93;;
17171;SDS011;8701;50.150;8.756;2024-01-30T09:13:40;16.33;;;9.70;;
17171;SDS011;8701;50.150;8.756;2024-01-30T09:17:43;12.37;;;9.50;;
17171;SDS011;8701;50.150;8.756;2024-01-30T09:21:45;15.37;;;9.60;;
17171;SDS011;8701;50.150;8.756;2024-01-30T09:25:49;14.93;;;8.90;;
17171;SDS011;8701;50.150;8.756;2024-01-30T09:29:51;16.07;;;9.00;;
17171;SDS011;8701;50.150;8.756;2024-01-30T09:33:54;13.63;;;9.60;;
17171;SDS011;8701;50.150;8.756;2024-01-30T09:37:56;18.23;;;9.50;;
17171;SDS011;8701;50.150;8.756;2024-01-30T09:42:02;15.83;;;9.30;;
17171;SDS011;8701;50.150;8.756;2024-01-30T09:46:11;13.27;;;9.20;;
17171;SDS011;8701;50.150;8.756;2024-01-30T09:50:16;14.60;;;8.90;;
17171;SDS011;8701;50.150;8.756;2024-01-30T09:54:18;18.03;;;9.67;;
17171;SDS011;8701;50.150;8.756;2024-01-30T09:58:23;12.30;;;9.30;;
17171;SDS011;8701;50.150;8.756;2024-01-30T10:02:25;13.37;;;8.80;;
17171;SDS011;8701;50.150;8.756;2024-01-30T10:06:27;16.53;;;9.57;;
17171;SDS011;8701;50.150;8.756;2024-01-30T10:10:30;16.87;;;10.50;;
17171;SDS011;8701;50.150;8.756;2024-01-30T10:14:37;16.67;;;10.37;;
17171;SDS011;8701;50.150;8.756;2024-01-30T10:18:40;18.97;;;9.87;;
17171;SDS011;8701;50.150;8.756;2024-01-30T10:22:43;14.70;;;10.30;;
17171;SDS011;8701;50.150;8.756;2024-01-30T10:26:46;18.30;;;10.37;;
17171;SDS011;8701;50.150;8.756;2024-01-30T10:30:58;20.10;;;10.17;;
17171;SDS011;8701;50.150;8.756;2024-01-30T10:35:01;17.60;;;11.17;;
17171;SDS011;8701;50.150;8.756;2024-01-30T10:39:03;17.90;;;11.10;;
17171;SDS011;8701;50.150;8.756;2024-01-30T10:43:09;13.97;;;9.37;;
17171;SDS011;8701;50.150;8.756;2024-01-30T10:47:15;19.67;;;10.47;;
17171;SDS011;8701;50.150;8.756;2024-01-30T10:51:24;13.33;;;9.97;;
17171;SDS011;8701;50.150;8.756;2024-01-30T10:55:28;13.63;;;10.23;;
17171;SDS011;8701;50.150;8.756;2024-01-30T10:59:31;12.20;;;8.77;;
17171;SDS011;8701;50.150;8.756;2024-01-30T11:03:35;18.80;;;9.80;;
17171;SDS011;8701;50.150;8.756;2024-01-30T11:07:38;14.40;;;9.90;;
17171;SDS011;8701;50.150;8.756;2024-01-30T11:11:49;14.77;;;10.20;;
17171;SDS011;8701;50.150;8.756;2024-01-30T11:15:51;14.43;;;10.20;;
17171;SDS011;8701;50.150;8.756;2024-01-30T11:19:55;15.00;;;9.43;;
17171;SDS011;8701;50.150;8.756;2024-01-30T11:24:01;21.70;;;10.57;;
17171;SDS011;8701;50.150;8.756;2024-01-30T11:28:05;18.17;;;10.80;;
17171;SDS011;8701;50.150;8.756;2024-01-30T11:32:21;13.57;;;9.67;;
17171;SDS011;8701;50.150;8.756;2024-01-30T11:36:26;14.30;;;9.90;;
17171;SDS011;8701;50.150;8.756;2024-01-30T11:40:29;12.07;;;8.80;;
17171;SDS011;8701;50.150;8.756;2024-01-30T11:44:32;14.80;;;10.10;;
17171;SDS011;8701;50.150;8.756;2024-01-30T11:48:34;14.60;;;9.93;;
17171;SDS011;8701;50.150;8.756;2024-01-30T11:52:38;17.07;;;10.77;;
17171;SDS011;8701;50.150;8.756;2024-01-30T11:56:40;16.80;;;10.30;;
17171;SDS011;8701;50.150;8.756;2024-01-30T12:00:52;13.53;;;9.47;;
17171;SDS011;8701;50.150;8.756;2024-01-30T12:04:55;14.43;;;9.93;;
17171;SDS011;8701;50.150;8.756;2024-01-30T12:08:59;14.50;;;9.90;;
17171;SDS011;8701;50.150;8.756;2024-01-30T12:13:04;15.73;;;10.10;;
17171;SDS011;8701;50.150;8.756;2024-01-30T12:17:07;15.43;;;9.33;;
17171;SDS011;8701;50.150;8.756;2024-01-30T12:21:10;18.90;;;11.10;;
17171;SDS011;8701;50.150;8.756;2024-01-30T12:25:14;17.93;;;9.23;;
17171;SDS011;8701;50.150;8.756;2024-01-30T12:29:17;16.47;;;9.50;;
17171;SDS011;8701;50.150;8.756;2024-01-30T12:33:19;12.70;;;9.37;;
17171;SDS011;8701;50.150;8.756;2024-01-30T12:37:21;18.00;;;9.83;;
17171;SDS011;8701;50.150;8.756;2024-01-30T12:41:26;15.17;;;9.57;;
17171;SDS011;8701;50.150;8.756;2024-01-30T12:45:30;15.87;;;9.80;;
17171;SDS011;8701;50.150;8.756;2024-01-30T12:49:32;15.60;;;9.47;;
17171;SDS011;8701;50.150;8.756;2024-01-30T12:53:34;13.77;;;9.23;;
17171;SDS011;8701;50.150;8.756;2024-01-30T12:57:38;15.97;;;9.27;;
17171;SDS011;8701;50.150;8.756;2024-01-30T13:01:40;15.83;;;8.90;;
17171;SDS011;8701;50.150;8.756;2024-01-30T13:05:42;22.43;;;9.50;;
17171;SDS011;8701;50.150;8.756;2024-01-30T13:09:45;12.33;;;9.30;;
17171;SDS011;8701;50.150;8.756;2024-01-30T13:13:49;17.70;;;9.10;;
17171;SDS011;8701;50.150;8.756;2024-01-30T13:17:51;12.23;;;9.20;;
17171;SDS011;8701;50.150;8.756;2024-01-30T13:21:54;14.83;;;8.67;;
17171;SDS011;8701;50.150;8.756;2024-01-30T13:25:57;13.40;;;9.27;;
17171;SDS011;8701;50.150;8.756;2024-01-30T13:30:00;15.10;;;9.70;;
17171;SDS011;8701;50.150;8.756;2024-01-30T13:34:03;13.77;;;9.33;;
17171;SDS011;8701;50.150;8.756;2024-01-30T13:38:06;17.97;;;9.43;;
17171;SDS011;8701;50.150;8.756;2024-01-30T13:42:08;14.20;;;9.50;;
17171;SDS011;8701;50.150;8.756;2024-01-30T13:46:12;17.50;;;10.10;;
17171;SDS011;8701;50.150;8.756;2024-01-30T13:50:15;12.27;;;9.43;;
17171;SDS011;8701;50.150;8.756;2024-01-30T13:54:18;15.83;;;9.77;;
17171;SDS011;8701;50.150;8.756;2024-01-30T13:58:20;14.03;;;9.63;;
17171;SDS011;8701;50.150;8.756;2024-01-30T14:02:24;18.50;;;10.60;;
17171;SDS011;8701;50.150;8.756;2024-01-30T14:06:26;17.70;;;10.10;;
17171;SDS011;8701;50.150;8.756;2024-01-30T14:10:28;12.93;;;8.90;;
17171;SDS011;8701;50.150;8.756;2024-01-30T14:14:31;15.00;;;10.10;;
17171;SDS011;8701;50.150;8.756;2024-01-30T14:18:34;19.10;;;8.83;;
17171;SDS011;8701;50.150;8.756;2024-01-30T14:22:37;12.20;;;9.33;;
17171;SDS011;8701;50.150;8.756;2024-01-30T14:26:39;12.63;;;8.80;;
17171;SDS011;8701;50.150;8.756;2024-01-30T14:30:41;25.33;;;10.70;;
17171;SDS011;8701;50.150;8.756;2024-01-30T14:34:45;12.97;;;9.40;;
17171;SDS011;8701;50.150;8.756;2024-01-30T14:38:48;16.87;;;10.60;;
17171;SDS011;8701;50.150;8.756;2024-01-30T14:42:50;16.40;;;9.43;;
17171;SDS011;8701;50.150;8.756;2024-01-30T14:46:52;20.50;;;9.97;;
17171;SDS011;8701;50.150;8.756;2024-01-30T14:50:57;13.20;;;10.63;;
17171;SDS011;8701;50.150;8.756;2024-01-30T14:54:59;14.57;;;9.90;;
17171;SDS011;8701;50.150;8.756;2024-01-30T14:59:01;20.50;;;10.80;;
17171;SDS011;8701;50.150;8.756;2024-01-30T15:03:03;16.73;;;9.80;;
17171;SDS011;8701;50.150;8.756;2024-01-30T15:07:07;15.13;;;9.60;;
17171;SDS011;8701;50.150;8.756;2024-01-30T15:11:10;14.10;;;10.20;;
17171;SDS011;8701;50.150;8.756;2024-01-30T15:15:13;15.83;;;10.60;;
17171;SDS011;8701;50.150;8.756;2024-01-30T15:19:15;14.90;;;9.90;;
17171;SDS011;8701;50.150;8.756;2024-01-30T15:23:19;16.10;;;10.63;;
17171;SDS011;8701;50.150;8.756;2024-01-30T15:27:22;13.90;;;9.77;;
17171;SDS011;8701;50.150;8.756;2024-01-30T15:31:25;15.50;;;10.13;;
17171;SDS011;8701;50.150;8.756;2024-01-30T15:35:28;14.20;;;9.73;;
17171;SDS011;8701;50.150;8.756;2024-01-30T15:39:31;13.60;;;10.70;;
17171;SDS011;8701;50.150;8.756;2024-01-30T15:43:34;18.33;;;10.90;;
17171;SDS011;8701;50.150;8.756;2024-01-30T15:47:37;22.23;;;11.37;;
17171;SDS011;8701;50.150;8.756;2024-01-30T15:51:40;25.70;;;13.23;;
17171;SDS011;8701;50.150;8.756;2024-01-30T15:55:43;22.33;;;12.90;;
17171;SDS011;8701;50.150;8.756;2024-01-30T15:59:47;19.47;;;11.57;;
17171;SDS011;8701;50.150;8.756;2024-01-30T16:03:49;19.90;;;11.80;;
17171;SDS011;8701;50.150;8.756;2024-01-30T16:07:51;15.47;;;10.50;;
17171;SDS011;8701;50.150;8.756;2024-01-30T16:11:55;26.97;;;11.40;;
17171;SDS011;8701;50.150;8.756;2024-01-30T16:15:57;18.83;;;11.70;;
17171;SDS011;8701;50.150;8.756;2024-01-30T16:19:59;16.27;;;10.77;;
17171;SDS011;8701;50.150;8.756;2024-01-30T16:24:02;17.73;;;10.67;;
17171;SDS011;8701;50.150;8.756;2024-01-30T16:28:06;15.50;;;10.90;;
17171;SDS011;8701;50.150;8.756;2024-01-30T16:32:08;17.93;;;11.30;;
17171;SDS011;8701;50.150;8.756;2024-01-30T16:36:10;18.30;;;11.37;;
17171;SDS011;8701;50.150;8.756;2024-01-30T16:40:12;22.83;;;11.23;;
17171;SDS011;8701;50.150;8.756;2024-01-30T16:44:16;18.37;;;11.40;;
17171;SDS011;8701;50.150;8.756;2024-01-30T16:48:19;19.67;;;11.50;;
17171;SDS011;8701;50.150;8.756;2024-01-30T16:52:23;16.47;;;11.10;;
17171;SDS011;8701;50.150;8.756;2024-01-30T16:56:26;18.80;;;11.43;;
17171;SDS011;8701;50.150;8.756;2024-01-30T17:00:29;15.50;;;11.70;;
17171;SDS011;8701;50.150;8.756;2024-01-30T17:04:32;19.83;;;11.33;;
17171;SDS011;8701;50.150;8.756;2024-01-30T17:08:35;17.70;;;12.13;;
17171;SDS011;8701;50.150;8.756;2024-01-30T17:12:37;17.43;;;11.57;;
17171;SDS011;8701;50.150;8.756;2024-01-30T17:16:40;22.43;;;13.30;;
17171;SDS011;8701;50.150;8.756;2024-01-30T17:20:43;20.03;;;12.73;;
17171;SDS011;8701;50.150;8.756;2024-01-30T17:24:45;19.83;;;12.10;;
17171;SDS011;8701;50.150;8.756;2024-01-30T17:28:48;22.20;;;11.90;;
17171;SDS011;8701;50.150;8.756;2024-01-30T17:32:52;18.27;;;12.03;;
17171;SDS011;8701;50.150;8.756;2024-01-30T17:36:54;19.37;;;11.80;;
17171;SDS011;8701;50.150;8.756;2024-01-30T17:40:56;20.83;;;12.20;;
17171;SDS011;8701;50.150;8.756;2024-01-30T17:44:58;18.17;;;11.90;;
17171;SDS011;8701;50.150;8.756;2024-01-30T17:49:02;18.10;;;11.10;;
17171;SDS011;8701;50.150;8.756;2024-01-30T17:53:06;19.17;;;11.90;;
17171;SDS011;8701;50.150;8.756;2024-01-30T17:57:09;18.10;;;12.17;;
17171;SDS011;8701;50.150;8.756;2024-01-30T18:01:12;19.57;;;12.13;;
17171;SDS011;8701;50.150;8.756;2024-01-30T18:05:16;19.30;;;11.50;;
17171;SDS011;8701;50.150;8.756;2024-01-30T18:09:19;20.87;;;10.63;;
17171;SDS011;8701;50.150;8.756;2024-01-30T18:13:21;18.70;;;11.90;;
17171;SDS011;8701;50.150;8.756;2024-01-30T18:17:24;20.50;;;11.63;;
17171;SDS011;8701;50.150;8.756;2024-01-30T18:21:27;17.20;;;11.10;;
17171;SDS011;8701;50.150;8.756;2024-01-30T18:25:29;17.87;;;10.87;;
17171;SDS011;8701;50.150;8.756;2024-01-30T18:29:32;15.50;;;10.80;;
17171;SDS011;8701;50.150;8.756;2024-01-30T18:33:34;20.47;;;10.63;;
17171;SDS011;8701;50.150;8.756;2024-01-30T18:37:38;27.63;;;10.60;;
17171;SDS011;8701;50.150;8.756;2024-01-30T18:41:40;17.63;;;9.90;;
17171;SDS011;8701;50.150;8.756;2024-01-30T18:45:42;13.13;;;10.13;;
17171;SDS011;8701;50.150;8.756;2024-01-30T18:49:44;14.80;;;9.83;;
17171;SDS011;8701;50.150;8.756;2024-01-30T18:53:52;16.50;;;10.57;;
17171;SDS011;8701;50.150;8.756;2024-01-30T18:57:55;17.17;;;10.40;;
17171;SDS011;8701;50.150;8.756;2024-01-30T19:01:57;17.60;;;10.97;;
17171;SDS011;8701;50.150;8.756;2024-01-30T19:05:59;18.07;;;10.00;;
17171;SDS011;8701;50.150;8.756;2024-01-30T19:10:03;15.90;;;10.83;;
17171;SDS011;8701;50.150;8.756;2024-01-30T19:14:06;19.13;;;11.13;;
17171;SDS011;8701;50.150;8.756;2024-01-30T19:18:09;17.33;;;10.47;;
17171;SDS011;8701;50.150;8.756;2024-01-30T19:22:11;15.57;;;10.90;;
17171;SDS011;8701;50.150;8.756;2024-01-30T19:26:15;14.43;;;9.80;;
17171;SDS011;8701;50.150;8.756;2024-01-30T19:30:17;15.53;;;9.70;;
17171;SDS011;8701;50.150;8.756;2024-01-30T19:34:20;18.90;;;9.63;;
17171;SDS011;8701;50.150;8.756;2024-01-30T19:38:22;14.97;;;10.37;;
17171;SDS011;8701;50.150;8.756;2024-01-30T19:42:26;17.20;;;10.00;;
17171;SDS011;8701;50.150;8.756;2024-01-30T19:46:28;13.70;;;9.90;;
17171;SDS011;8701;50.150;8.756;2024-01-30T19:50:31;15.63;;;10.00;;
17171;SDS011;8701;50.150;8.756;2024-01-30T19:54:33;16.80;;;10.90;;
17171;SDS011;8701;50.150;8.756;2024-01-30T19:58:37;15.50;;;9.00;;
17171;SDS011;8701;50.150;8.756;2024-01-30T20:02:39;14.33;;;9.70;;
17171;SDS011;8701;50.150;8.756;2024-01-30T20:06:42;13.10;;;9.77;;
17171;SDS011;8701;50.150;8.756;2024-01-30T20:10:44;17.23;;;10.20;;
17171;SDS011;8701;50.150;8.756;2024-01-30T20:14:48;14.30;;;10.17;;
17171;SDS011;8701;50.150;8.756;2024-01-30T20:18:50;12.03;;;9.13;;
17171;SDS011;8701;50.150;8.756;2024-01-30T20:22:53;14.40;;;8.97;;
17171;SDS011;8701;50.150;8.756;2024-01-30T20:26:55;13.63;;;9.83;;
17171;SDS011;8701;50.150;8.756;2024-01-30T20:30:59;14.90;;;10.37;;
17171;SDS011;8701;50.150;8.756;2024-01-30T20:35:01;13.80;;;9.50;;
17171;SDS011;8701;50.150;8.756;2024-01-30T20:39:03;12.20;;;9.07;;
17171;SDS011;8701;50.150;8.756;2024-01-30T20:43:07;18.27;;;10.60;;
17171;SDS011;8701;50.150;8.756;2024-01-30T20:47:14;15.60;;;10.07;;
17171;SDS011;8701;50.150;8.756;2024-01-30T20:51:16;16.13;;;11.00;;
17171;SDS011;8701;50.150;8.756;2024-01-30T20:55:20;15.77;;;10.27;;
17171;SDS011;8701;50.150;8.756;2024-01-30T20:59:22;18.20;;;10.23;;
17171;SDS011;8701;50.150;8.756;2024-01-30T21:03:26;14.10;;;10.10;;
17171;SDS011;8701;50.150;8.756;2024-01-30T21:07:29;17.23;;;9.97;;
17171;SDS011;8701;50.150;8.756;2024-01-30T21:11:31;13.00;;;9.90;;
17171;SDS011;8701;50.150;8.756;2024-01-30T21:15:34;17.50;;;9.80;;
17171;SDS011;8701;50.150;8.756;2024-01-30T21:19:38;15.03;;;10.27;;
17171;SDS011;8701;50.150;8.756;2024-01-30T21:23:40;14.07;;;9.17;;
17171;SDS011;8701;50.150;8.756;2024-01-30T21:27:42;17.77;;;9.77;;
17171;SDS011;8701;50.150;8.756;2024-01-30T21:31:44;14.30;;;9.53;;
17171;SDS011;8701;50.150;8.756;2024-01-30T21:35:48;18.27;;;9.90;;
17171;SDS011;8701;50.150;8.756;2024-01-30T21:39:51;12.20;;;9.50;;
17171;SDS011;8701;50.150;8.756;2024-01-30T21:43:54;14.20;;;9.17;;
17171;SDS011;8701;50.150;8.756;2024-01-30T21:47:57;13.50;;;9.90;;
17171;SDS011;8701;50.150;8.756;2024-01-30T21:52:01;12.67;;;9.30;;
17171;SDS011;8701;50.150;8.756;2024-01-30T21:56:05;13.00;;;9.40;;
17171;SDS011;8701;50.150;8.756;2024-01-30T22:00:09;13.87;;;8.87;;
17171;SDS011;8701;50.150;8.756;2024-01-30T22:04:12;14.40;;;8.80;;
17171;SDS011;8701;50.150;8.756;2024-01-30T22:08:16;14.57;;;8.67;;
17171;SDS011;8701;50.150;8.756;2024-01-30T22:12:18;15.37;;;9.90;;
17171;SDS011;8701;50.150;8.756;2024-01-30T22:16:21;15.90;;;9.13;;
17171;SDS011;8701;50.150;8.756;2024-01-30T22:20:24;11.37;;;8.00;;
17171;SDS011;8701;50.150;8.756;2024-01-30T22:24:28;13.77;;;9.90;;
17171;SDS011;8701;50.150;8.756;2024-01-30T22:28:30;16.80;;;9.90;;
17171;SDS011;8701;50.150;8.756;2024-01-30T22:32:32;14.47;;;10.30;;
17171;SDS011;8701;50.150;8.756;2024-01-30T22:36:36;17.33;;;11.17;;
17171;SDS011;8701;50.150;8.756;2024-01-30T22:40:40;18.50;;;12.03;;
17171;SDS011;8701;50.150;8.756;2024-01-30T22:44:42;18.33;;;11.17;;
17171;SDS011;8701;50.150;8.756;2024-01-30T22:48:44;18.43;;;11.80;;
17171;SDS011;8701;50.150;8.756;2024-01-30T22:52:48;20.00;;;11.60;;
17171;SDS011;8701;50.150;8.756;2024-01-30T22:56:51;20.20;;;11.90;;
17171;SDS011;8701;50.150;8.756;2024-01-30T23:00:54;18.57;;;11.97;;
17171;SDS011;8701;50.150;8.756;2024-01-30T23:04:56;17.77;;;11.60;;
17171;SDS011;8701;50.150;8.756;2024-01-30T23:08:58;16.10;;;10.90;;
17171;SDS011;8701;50.150;8.756;2024-01-30T23:13:02;34.93;;;12.30;;
17171;SDS011;8701;50.150;8.756;2024-01-30T23:17:04;16.37;;;9.87;;
17171;SDS011;8701;50.150;8.756;2024-01-30T23:21:07;16.83;;;11.03;;
17171;SDS011;8701;50.150;8.756;2024-01-30T23:25:09;15.10;;;10.77;;
17171;SDS011;8701;50.150;8.756;2024-01-30T23:29:13;16.87;;;9.90;;
17171;SDS011;8701;50.150;8.756;2024-01-30T23:33:15;14.60;;;10.13;;
17171;SDS011;8701;50.150;8.756;2024-01-30T23:37:18;17.07;;;10.77;;
17171;SDS011;8701;50.150;8.756;2024-01-30T23:41:20;14.47;;;10.40;;
17171;SDS011;8701;50.150;8.756;2024-01-30T23:45:24;15.70;;;10.10;;
17171;SDS011;8701;50.150;8.756;2024-01-30T23:49:26;17.90;;;9.57;;
17171;SDS011;8701;50.150;8.756;2024-01-30T23:53:28;13.23;;;8.90;;
17171;SDS011;8701;50.150;8.756;2024-01-30T23:57:30;12.60;;;9.57;;
